sensor_id;sensor_type;location;lat;lon;timestamp;temperature;humidity
7411;DHT22;3747;48.628;9.058;2023-05-14T00:01:03;10.00;99.90
7411;DHT22;3747;48.628;9.058;2023-05-14T00:03:32;9.90;99.90
7411;DHT22;3747;48.628;9.058;2023-05-14T00:06:01;9.90;99.90
7411;DHT22;3747;48.628;9.058;2023-05-14T00:08:27;9.90;99.90
7411;DHT22;3747;48.628;9.058;2023-05-14T00:10:54;9.90;99.90
7411;DHT22;3747;48.628;9.058;2023-05-14T00:13:21;9.90;99.90
7411;DHT22;3747;48.628;9.058;2023-05-14T00:15:47;9.90;99.90
7411;DHT22;3747;48.628;9.058;2023-05-14T00:18:14;9.90;99.90
7411;DHT22;3747;48.628;9.058;2023-05-14T00:20:41;9.90;99.90
7411;DHT22;3747;48.628;9.058;2023-05-14T00:23:09;9.90;99.90
7411;DHT22;3747;48.628;9.058;2023-05-14T00:25:35;10.00;99.90
7411;DHT22;3747;48.628;9.058;2023-05-14T00:28:02;9.90;99.90
7411;DHT22;3747;48.628;9.058;2023-05-14T00:30:29;9.90;99.90
7411;DHT22;3747;48.628;9.058;2023-05-14T00:32:56;9.90;99.90
7411;DHT22;3747;48.628;9.058;2023-05-14T00:35:23;9.90;99.90
7411;DHT22;3747;48.628;9.058;2023-05-14T00:37:49;9.90;99.90
7411;DHT22;3747;48.628;9.058;2023-05-14T00:40:18;9.90;99.90
7411;DHT22;3747;48.628;9.058;2023-05-14T00:42:45;9.90;99.90
7411;DHT22;3747;48.628;9.058;2023-05-14T00:45:12;9.90;99.90
7411;DHT22;3747;48.628;9.058;2023-05-14T00:47:38;9.90;99.90
7411;DHT22;3747;48.628;9.058;2023-05-14T00:50:06;9.90;99.90
7411;DHT22;3747;48.628;9.058;2023-05-14T00:52:33;9.90;99.90
7411;DHT22;3747;48.628;9.058;2023-05-14T00:55:03;9.90;99.90
7411;DHT22;3747;48.628;9.058;2023-05-14T00:57:32;9.90;99.90
7411;DHT22;3747;48.628;9.058;2023-05-14T01:00:00;9.80;99.90
7411;DHT22;3747;48.628;9.058;2023-05-14T01:02:27;9.80;99.90
7411;DHT22;3747;48.628;9.058;2023-05-14T01:04:54;9.70;99.90
7411;DHT22;3747;48.628;9.058;2023-05-14T01:07:29;9.70;99.90
7411;DHT22;3747;48.628;9.058;2023-05-14T01:10:01;9.60;99.90
7411;DHT22;3747;48.628;9.058;2023-05-14T01:12:35;9.60;99.90
7411;DHT22;3747;48.628;9.058;2023-05-14T01:15:10;9.60;99.90
7411;DHT22;3747;48.628;9.058;2023-05-14T01:17:40;9.60;99.90
7411;DHT22;3747;48.628;9.058;2023-05-14T01:20:08;9.60;99.90
7411;DHT22;3747;48.628;9.058;2023-05-14T01:22:36;9.60;99.90
7411;DHT22;3747;48.628;9.058;2023-05-14T01:25:04;9.60;99.90
7411;DHT22;3747;48.628;9.058;2023-05-14T01:27:35;9.60;99.90
7411;DHT22;3747;48.628;9.058;2023-05-14T01:30:08;9.60;99.90
7411;DHT22;3747;48.628;9.058;2023-05-14T01:32:38;9.60;99.90
7411;DHT22;3747;48.628;9.058;2023-05-14T01:35:07;9.60;99.90
7411;DHT22;3747;48.628;9.058;2023-05-14T01:37:37;9.60;99.90
7411;DHT22;3747;48.628;9.058;2023-05-14T01:40:06;9.60;99.90
7411;DHT22;3747;48.628;9.058;2023-05-14T01:42:34;9.60;99.90
7411;DHT22;3747;48.628;9.058;2023-05-14T01:45:02;9.60;99.90
7411;DHT22;3747;48.628;9.058;2023-05-14T01:47:28;9.50;99.90
7411;DHT22;3747;48.628;9.058;2023-05-14T01:49:55;9.50;99.90
7411;DHT22;3747;48.628;9.058;2023-05-14T01:52:22;9.50;99.90
7411;DHT22;3747;48.628;9.058;2023-05-14T01:54:50;9.50;99.90
7411;DHT22;3747;48.628;9.058;2023-05-14T01:57:17;9.50;99.90
7411;DHT22;3747;48.628;9.058;2023-05-14T01:59:43;9.50;99.90
7411;DHT22;3747;48.628;9.058;2023-05-14T02:02:10;9.50;99.90
7411;DHT22;3747;48.628;9.058;2023-05-14T02:04:37;9.60;99.90
7411;DHT22;3747;48.628;9.058;2023-05-14T02:07:04;9.50;99.90
7411;DHT22;3747;48.628;9.058;2023-05-14T02:09:31;9.50;99.90
7411;DHT22;3747;48.628;9.058;2023-05-14T02:11:59;9.40;99.90
7411;DHT22;3747;48.628;9.058;2023-05-14T02:14:26;9.40;99.90
7411;DHT22;3747;48.628;9.058;2023-05-14T02:16:53;9.20;99.90
7411;DHT22;3747;48.628;9.058;2023-05-14T02:19:19;9.10;99.90
7411;DHT22;3747;48.628;9.058;2023-05-14T02:21:47;9.00;99.90
7411;DHT22;3747;48.628;9.058;2023-05-14T02:24:14;8.90;99.90
7411;DHT22;3747;48.628;9.058;2023-05-14T02:26:40;8.80;99.90
7411;DHT22;3747;48.628;9.058;2023-05-14T02:29:08;8.70;99.90
7411;DHT22;3747;48.628;9.058;2023-05-14T02:31:35;8.70;99.90
7411;DHT22;3747;48.628;9.058;2023-05-14T02:34:03;8.60;99.90
7411;DHT22;3747;48.628;9.058;2023-05-14T02:36:30;8.50;99.90
7411;DHT22;3747;48.628;9.058;2023-05-14T02:38:58;8.60;99.90
7411;DHT22;3747;48.628;9.058;2023-05-14T02:41:25;8.60;99.90
7411;DHT22;3747;48.628;9.058;2023-05-14T02:43:52;8.70;99.90
7411;DHT22;3747;48.628;9.058;2023-05-14T02:46:20;8.80;99.90
7411;DHT22;3747;48.628;9.058;2023-05-14T02:48:47;8.80;99.90
7411;DHT22;3747;48.628;9.058;2023-05-14T02:51:13;8.90;99.90
7411;DHT22;3747;48.628;9.058;2023-05-14T02:53:40;8.90;99.90
7411;DHT22;3747;48.628;9.058;2023-05-14T02:56:07;9.00;99.90
7411;DHT22;3747;48.628;9.058;2023-05-14T02:58:33;9.00;99.90
7411;DHT22;3747;48.628;9.058;2023-05-14T03:01:00;9.00;99.90
7411;DHT22;3747;48.628;9.058;2023-05-14T03:03:29;9.00;99.90
7411;DHT22;3747;48.628;9.058;2023-05-14T03:05:56;9.00;99.90
7411;DHT22;3747;48.628;9.058;2023-05-14T03:08:22;9.00;99.90
7411;DHT22;3747;48.628;9.058;2023-05-14T03:10:49;9.00;99.90
7411;DHT22;3747;48.628;9.058;2023-05-14T03:13:16;9.00;99.90
7411;DHT22;3747;48.628;9.058;2023-05-14T03:15:44;9.00;99.90
7411;DHT22;3747;48.628;9.058;2023-05-14T03:18:11;9.00;99.90
7411;DHT22;3747;48.628;9.058;2023-05-14T03:20:39;9.00;99.90
7411;DHT22;3747;48.628;9.058;2023-05-14T03:23:06;9.00;99.90
7411;DHT22;3747;48.628;9.058;2023-05-14T03:25:33;9.00;99.90
7411;DHT22;3747;48.628;9.058;2023-05-14T03:28:00;9.00;99.90
7411;DHT22;3747;48.628;9.058;2023-05-14T03:30:26;9.00;99.90
7411;DHT22;3747;48.628;9.058;2023-05-14T03:32:53;9.00;99.90
7411;DHT22;3747;48.628;9.058;2023-05-14T03:35:20;9.00;99.90
7411;DHT22;3747;48.628;9.058;2023-05-14T03:37:48;8.90;99.90
7411;DHT22;3747;48.628;9.058;2023-05-14T03:40:15;8.90;99.90
7411;DHT22;3747;48.628;9.058;2023-05-14T03:42:42;8.90;99.90
7411;DHT22;3747;48.628;9.058;2023-05-14T03:45:09;8.90;99.90
7411;DHT22;3747;48.628;9.058;2023-05-14T03:47:36;8.90;99.90
7411;DHT22;3747;48.628;9.058;2023-05-14T03:50:03;8.90;99.90
7411;DHT22;3747;48.628;9.058;2023-05-14T03:52:29;8.80;99.90
7411;DHT22;3747;48.628;9.058;2023-05-14T03:54:57;8.80;99.90
7411;DHT22;3747;48.628;9.058;2023-05-14T03:57:24;8.90;99.90
7411;DHT22;3747;48.628;9.058;2023-05-14T03:59:51;8.80;99.90
7411;DHT22;3747;48.628;9.058;2023-05-14T04:02:18;8.80;99.90
7411;DHT22;3747;48.628;9.058;2023-05-14T04:04:44;8.90;99.90
7411;DHT22;3747;48.628;9.058;2023-05-14T04:07:11;8.90;99.90
7411;DHT22;3747;48.628;9.058;2023-05-14T04:09:37;8.90;99.90
7411;DHT22;3747;48.628;9.058;2023-05-14T04:12:07;8.90;99.90
7411;DHT22;3747;48.628;9.058;2023-05-14T04:14:33;8.90;99.90
7411;DHT22;3747;48.628;9.058;2023-05-14T04:17:00;8.90;99.90
7411;DHT22;3747;48.628;9.058;2023-05-14T04:19:27;8.90;99.90
7411;DHT22;3747;48.628;9.058;2023-05-14T04:21:54;8.90;99.90
7411;DHT22;3747;48.628;9.058;2023-05-14T04:24:20;8.90;99.90
7411;DHT22;3747;48.628;9.058;2023-05-14T04:26:47;8.90;99.90
7411;DHT22;3747;48.628;9.058;2023-05-14T04:29:15;8.90;99.90
7411;DHT22;3747;48.628;9.058;2023-05-14T04:31:42;8.90;99.90
7411;DHT22;3747;48.628;9.058;2023-05-14T04:34:08;8.90;99.90
7411;DHT22;3747;48.628;9.058;2023-05-14T04:36:35;8.90;99.90
7411;DHT22;3747;48.628;9.058;2023-05-14T04:39:02;9.00;99.90
7411;DHT22;3747;48.628;9.058;2023-05-14T04:41:30;9.00;99.90
7411;DHT22;3747;48.628;9.058;2023-05-14T04:43:58;9.10;99.90
7411;DHT22;3747;48.628;9.058;2023-05-14T04:46:26;9.10;99.90
7411;DHT22;3747;48.628;9.058;2023-05-14T04:48:53;9.10;99.90
7411;DHT22;3747;48.628;9.058;2023-05-14T04:51:22;9.00;99.90
7411;DHT22;3747;48.628;9.058;2023-05-14T04:53:49;9.10;99.90
7411;DHT22;3747;48.628;9.058;2023-05-14T04:56:16;9.10;99.90
7411;DHT22;3747;48.628;9.058;2023-05-14T04:58:42;9.10;99.90
7411;DHT22;3747;48.628;9.058;2023-05-14T05:01:09;9.10;99.90
7411;DHT22;3747;48.628;9.058;2023-05-14T05:03:37;9.10;99.90
7411;DHT22;3747;48.628;9.058;2023-05-14T05:06:04;9.10;99.90
7411;DHT22;3747;48.628;9.058;2023-05-14T05:08:31;9.10;99.90
7411;DHT22;3747;48.628;9.058;2023-05-14T05:10:57;9.10;99.90
7411;DHT22;3747;48.628;9.058;2023-05-14T05:13:24;9.10;99.90
7411;DHT22;3747;48.628;9.058;2023-05-14T05:15:51;9.20;99.90
7411;DHT22;3747;48.628;9.058;2023-05-14T05:18:17;9.20;99.90
7411;DHT22;3747;48.628;9.058;2023-05-14T05:20:45;9.30;99.90
7411;DHT22;3747;48.628;9.058;2023-05-14T05:23:12;9.30;99.90
7411;DHT22;3747;48.628;9.058;2023-05-14T05:25:39;9.40;99.90
7411;DHT22;3747;48.628;9.058;2023-05-14T05:28:05;9.50;99.90
7411;DHT22;3747;48.628;9.058;2023-05-14T05:30:32;9.60;99.90
7411;DHT22;3747;48.628;9.058;2023-05-14T05:32:59;9.80;99.90
7411;DHT22;3747;48.628;9.058;2023-05-14T05:35:26;9.80;99.90
7411;DHT22;3747;48.628;9.058;2023-05-14T05:37:54;9.90;99.90
7411;DHT22;3747;48.628;9.058;2023-05-14T05:40:21;9.90;99.90
7411;DHT22;3747;48.628;9.058;2023-05-14T05:42:47;9.80;99.90
7411;DHT22;3747;48.628;9.058;2023-05-14T05:45:14;9.90;99.90
7411;DHT22;3747;48.628;9.058;2023-05-14T05:47:41;9.90;99.90
7411;DHT22;3747;48.628;9.058;2023-05-14T05:50:08;9.90;99.90
7411;DHT22;3747;48.628;9.058;2023-05-14T05:52:35;9.80;99.90
7411;DHT22;3747;48.628;9.058;2023-05-14T05:55:04;9.90;99.90
7411;DHT22;3747;48.628;9.058;2023-05-14T05:57:31;9.80;99.90
7411;DHT22;3747;48.628;9.058;2023-05-14T05:59:57;9.80;99.90
7411;DHT22;3747;48.628;9.058;2023-05-14T06:02:24;9.80;99.90
7411;DHT22;3747;48.628;9.058;2023-05-14T06:04:51;9.80;99.90
7411;DHT22;3747;48.628;9.058;2023-05-14T06:07:18;9.90;99.90
7411;DHT22;3747;48.628;9.058;2023-05-14T06:09:44;9.80;99.90
7411;DHT22;3747;48.628;9.058;2023-05-14T06:12:12;9.70;99.90
7411;DHT22;3747;48.628;9.058;2023-05-14T06:14:39;9.70;99.90
7411;DHT22;3747;48.628;9.058;2023-05-14T06:17:06;9.70;99.90
7411;DHT22;3747;48.628;9.058;2023-05-14T06:19:33;9.70;99.90
7411;DHT22;3747;48.628;9.058;2023-05-14T06:21:59;9.80;99.90
7411;DHT22;3747;48.628;9.058;2023-05-14T06:24:27;9.80;99.90
7411;DHT22;3747;48.628;9.058;2023-05-14T06:26:53;10.00;99.90
7411;DHT22;3747;48.628;9.058;2023-05-14T06:29:21;10.10;99.90
7411;DHT22;3747;48.628;9.058;2023-05-14T06:31:48;10.20;99.90
7411;DHT22;3747;48.628;9.058;2023-05-14T06:34:15;10.20;99.90
7411;DHT22;3747;48.628;9.058;2023-05-14T06:36:41;10.20;99.90
7411;DHT22;3747;48.628;9.058;2023-05-14T06:39:08;10.10;99.90
7411;DHT22;3747;48.628;9.058;2023-05-14T06:41:35;10.00;99.90
7411;DHT22;3747;48.628;9.058;2023-05-14T06:44:01;10.00;99.90
7411;DHT22;3747;48.628;9.058;2023-05-14T06:46:29;9.90;99.90
7411;DHT22;3747;48.628;9.058;2023-05-14T06:48:56;9.90;99.90
7411;DHT22;3747;48.628;9.058;2023-05-14T06:51:23;9.90;99.90
7411;DHT22;3747;48.628;9.058;2023-05-14T06:53:50;10.00;99.90
7411;DHT22;3747;48.628;9.058;2023-05-14T06:56:18;10.00;99.90
7411;DHT22;3747;48.628;9.058;2023-05-14T06:58:46;10.10;99.90
7411;DHT22;3747;48.628;9.058;2023-05-14T07:01:12;10.20;99.90
7411;DHT22;3747;48.628;9.058;2023-05-14T07:03:40;10.30;99.90
7411;DHT22;3747;48.628;9.058;2023-05-14T07:06:07;10.40;99.90
7411;DHT22;3747;48.628;9.058;2023-05-14T07:08:34;10.50;99.90
7411;DHT22;3747;48.628;9.058;2023-05-14T07:11:01;10.50;99.90
7411;DHT22;3747;48.628;9.058;2023-05-14T07:13:28;10.50;99.90
7411;DHT22;3747;48.628;9.058;2023-05-14T07:15:55;10.60;99.90
7411;DHT22;3747;48.628;9.058;2023-05-14T07:18:22;10.60;99.90
7411;DHT22;3747;48.628;9.058;2023-05-14T07:20:50;10.60;99.90
7411;DHT22;3747;48.628;9.058;2023-05-14T07:23:17;10.60;99.90
7411;DHT22;3747;48.628;9.058;2023-05-14T07:25:43;10.60;99.90
7411;DHT22;3747;48.628;9.058;2023-05-14T07:28:11;10.50;99.90
7411;DHT22;3747;48.628;9.058;2023-05-14T07:30:37;10.70;99.90
7411;DHT22;3747;48.628;9.058;2023-05-14T07:33:04;10.80;99.90
7411;DHT22;3747;48.628;9.058;2023-05-14T07:35:31;10.90;99.90
7411;DHT22;3747;48.628;9.058;2023-05-14T07:37:59;10.90;99.90
7411;DHT22;3747;48.628;9.058;2023-05-14T07:40:26;10.90;99.90
7411;DHT22;3747;48.628;9.058;2023-05-14T07:42:52;11.10;99.90
7411;DHT22;3747;48.628;9.058;2023-05-14T07:45:19;11.20;99.90
7411;DHT22;3747;48.628;9.058;2023-05-14T07:47:45;11.20;99.90
7411;DHT22;3747;48.628;9.058;2023-05-14T07:50:16;11.30;99.90
7411;DHT22;3747;48.628;9.058;2023-05-14T07:52:43;11.30;99.90
7411;DHT22;3747;48.628;9.058;2023-05-14T07:55:11;11.50;99.90
7411;DHT22;3747;48.628;9.058;2023-05-14T07:57:38;11.60;99.90
7411;DHT22;3747;48.628;9.058;2023-05-14T08:00:06;12.00;99.90
7411;DHT22;3747;48.628;9.058;2023-05-14T08:02:33;12.40;99.90
7411;DHT22;3747;48.628;9.058;2023-05-14T08:05:00;12.70;99.90
7411;DHT22;3747;48.628;9.058;2023-05-14T08:07:26;12.80;99.90
7411;DHT22;3747;48.628;9.058;2023-05-14T08:09:54;13.10;99.90
7411;DHT22;3747;48.628;9.058;2023-05-14T08:12:22;13.20;99.90
7411;DHT22;3747;48.628;9.058;2023-05-14T08:14:49;13.20;99.90
7411;DHT22;3747;48.628;9.058;2023-05-14T08:17:16;13.40;99.90
7411;DHT22;3747;48.628;9.058;2023-05-14T08:19:43;13.40;99.90
7411;DHT22;3747;48.628;9.058;2023-05-14T08:22:10;13.50;99.90
7411;DHT22;3747;48.628;9.058;2023-05-14T08:24:37;13.70;99.90
7411;DHT22;3747;48.628;9.058;2023-05-14T08:27:04;14.00;99.90
7411;DHT22;3747;48.628;9.058;2023-05-14T08:29:33;14.10;99.90
7411;DHT22;3747;48.628;9.058;2023-05-14T08:32:00;13.60;99.90
7411;DHT22;3747;48.628;9.058;2023-05-14T08:34:27;13.90;99.90
7411;DHT22;3747;48.628;9.058;2023-05-14T08:36:54;13.60;99.90
7411;DHT22;3747;48.628;9.058;2023-05-14T08:39:20;13.70;99.90
7411;DHT22;3747;48.628;9.058;2023-05-14T08:41:47;13.90;99.90
7411;DHT22;3747;48.628;9.058;2023-05-14T08:44:17;13.90;99.90
7411;DHT22;3747;48.628;9.058;2023-05-14T08:46:45;14.40;99.90
7411;DHT22;3747;48.628;9.058;2023-05-14T08:49:20;14.70;99.90
7411;DHT22;3747;48.628;9.058;2023-05-14T08:51:50;15.40;99.90
7411;DHT22;3747;48.628;9.058;2023-05-14T08:54:17;15.60;99.90
7411;DHT22;3747;48.628;9.058;2023-05-14T08:56:46;15.70;99.90
7411;DHT22;3747;48.628;9.058;2023-05-14T08:59:13;14.90;99.90
7411;DHT22;3747;48.628;9.058;2023-05-14T09:01:43;14.90;99.90
7411;DHT22;3747;48.628;9.058;2023-05-14T09:04:14;14.80;99.90
7411;DHT22;3747;48.628;9.058;2023-05-14T09:06:42;15.00;99.90
7411;DHT22;3747;48.628;9.058;2023-05-14T09:09:09;15.20;99.90
7411;DHT22;3747;48.628;9.058;2023-05-14T09:11:40;15.20;99.90
7411;DHT22;3747;48.628;9.058;2023-05-14T09:14:07;15.60;99.90
7411;DHT22;3747;48.628;9.058;2023-05-14T09:16:34;16.20;99.90
7411;DHT22;3747;48.628;9.058;2023-05-14T09:19:02;16.70;99.90
7411;DHT22;3747;48.628;9.058;2023-05-14T09:21:30;17.00;99.90
7411;DHT22;3747;48.628;9.058;2023-05-14T09:23:56;16.70;99.90
7411;DHT22;3747;48.628;9.058;2023-05-14T09:26:24;16.90;99.90
7411;DHT22;3747;48.628;9.058;2023-05-14T09:28:53;17.20;99.90
7411;DHT22;3747;48.628;9.058;2023-05-14T09:31:20;17.70;99.90
7411;DHT22;3747;48.628;9.058;2023-05-14T09:33:49;17.00;99.90
7411;DHT22;3747;48.628;9.058;2023-05-14T09:36:16;17.20;99.90
7411;DHT22;3747;48.628;9.058;2023-05-14T09:38:45;17.40;99.90
7411;DHT22;3747;48.628;9.058;2023-05-14T09:41:11;18.10;99.90
7411;DHT22;3747;48.628;9.058;2023-05-14T09:43:38;18.50;99.90
7411;DHT22;3747;48.628;9.058;2023-05-14T09:46:05;19.10;99.90
7411;DHT22;3747;48.628;9.058;2023-05-14T09:48:33;18.90;99.90
7411;DHT22;3747;48.628;9.058;2023-05-14T09:50:59;19.10;99.90
7411;DHT22;3747;48.628;9.058;2023-05-14T09:53:26;19.30;99.90
7411;DHT22;3747;48.628;9.058;2023-05-14T09:55:55;20.20;99.90
7411;DHT22;3747;48.628;9.058;2023-05-14T09:58:21;21.10;99.90
7411;DHT22;3747;48.628;9.058;2023-05-14T10:00:49;21.90;99.90
7411;DHT22;3747;48.628;9.058;2023-05-14T10:03:17;21.70;99.90
7411;DHT22;3747;48.628;9.058;2023-05-14T10:05:47;21.50;99.90
7411;DHT22;3747;48.628;9.058;2023-05-14T10:08:19;21.10;99.90
7411;DHT22;3747;48.628;9.058;2023-05-14T10:10:48;21.20;99.90
7411;DHT22;3747;48.628;9.058;2023-05-14T10:13:21;21.00;99.90
7411;DHT22;3747;48.628;9.058;2023-05-14T10:15:52;20.60;99.90
7411;DHT22;3747;48.628;9.058;2023-05-14T10:18:23;20.30;99.90
7411;DHT22;3747;48.628;9.058;2023-05-14T10:20:55;20.00;99.90
7411;DHT22;3747;48.628;9.058;2023-05-14T10:23:22;19.30;99.90
7411;DHT22;3747;48.628;9.058;2023-05-14T10:25:50;17.90;99.90
7411;DHT22;3747;48.628;9.058;2023-05-14T10:28:18;17.50;99.90
7411;DHT22;3747;48.628;9.058;2023-05-14T10:30:45;16.80;99.90
7411;DHT22;3747;48.628;9.058;2023-05-14T10:33:13;16.30;99.90
7411;DHT22;3747;48.628;9.058;2023-05-14T10:35:59;16.10;99.90
7411;DHT22;3747;48.628;9.058;2023-05-14T10:38:27;16.40;99.90
7411;DHT22;3747;48.628;9.058;2023-05-14T10:40:55;17.20;99.90
7411;DHT22;3747;48.628;9.058;2023-05-14T10:43:26;17.90;99.90
7411;DHT22;3747;48.628;9.058;2023-05-14T10:45:54;18.40;99.90
7411;DHT22;3747;48.628;9.058;2023-05-14T10:48:21;18.50;99.90
7411;DHT22;3747;48.628;9.058;2023-05-14T10:50:49;18.90;99.90
7411;DHT22;3747;48.628;9.058;2023-05-14T10:53:16;19.60;99.90
7411;DHT22;3747;48.628;9.058;2023-05-14T10:55:43;20.80;99.90
7411;DHT22;3747;48.628;9.058;2023-05-14T10:58:10;21.90;99.90
7411;DHT22;3747;48.628;9.058;2023-05-14T11:00:39;22.90;99.90
7411;DHT22;3747;48.628;9.058;2023-05-14T11:03:06;22.30;99.90
7411;DHT22;3747;48.628;9.058;2023-05-14T11:05:33;22.10;99.90
7411;DHT22;3747;48.628;9.058;2023-05-14T11:08:03;22.00;99.90
7411;DHT22;3747;48.628;9.058;2023-05-14T11:10:31;21.70;99.90
7411;DHT22;3747;48.628;9.058;2023-05-14T11:12:58;21.70;99.90
7411;DHT22;3747;48.628;9.058;2023-05-14T11:15:25;22.00;99.90
7411;DHT22;3747;48.628;9.058;2023-05-14T11:17:54;22.30;99.90
7411;DHT22;3747;48.628;9.058;2023-05-14T11:20:20;21.60;99.90
7411;DHT22;3747;48.628;9.058;2023-05-14T11:22:48;21.70;99.90
7411;DHT22;3747;48.628;9.058;2023-05-14T11:25:15;22.60;99.90
7411;DHT22;3747;48.628;9.058;2023-05-14T11:27:44;22.60;99.90
7411;DHT22;3747;48.628;9.058;2023-05-14T11:30:12;23.30;99.90
7411;DHT22;3747;48.628;9.058;2023-05-14T11:32:43;23.50;99.90
7411;DHT22;3747;48.628;9.058;2023-05-14T11:35:12;21.90;99.90
7411;DHT22;3747;48.628;9.058;2023-05-14T11:37:39;19.60;99.90
7411;DHT22;3747;48.628;9.058;2023-05-14T11:40:07;18.40;99.90
7411;DHT22;3747;48.628;9.058;2023-05-14T11:42:35;17.70;99.90
7411;DHT22;3747;48.628;9.058;2023-05-14T11:45:03;17.30;99.90
7411;DHT22;3747;48.628;9.058;2023-05-14T11:47:30;17.70;99.90
7411;DHT22;3747;48.628;9.058;2023-05-14T11:49:58;18.10;99.90
7411;DHT22;3747;48.628;9.058;2023-05-14T11:52:27;18.80;99.90
7411;DHT22;3747;48.628;9.058;2023-05-14T11:54:54;20.00;99.90
7411;DHT22;3747;48.628;9.058;2023-05-14T11:57:21;20.00;99.90
7411;DHT22;3747;48.628;9.058;2023-05-14T11:59:54;20.50;99.90
7411;DHT22;3747;48.628;9.058;2023-05-14T12:02:22;20.00;99.90
7411;DHT22;3747;48.628;9.058;2023-05-14T12:04:49;20.80;99.90
7411;DHT22;3747;48.628;9.058;2023-05-14T12:07:17;20.60;99.90
7411;DHT22;3747;48.628;9.058;2023-05-14T12:09:46;19.90;99.90
7411;DHT22;3747;48.628;9.058;2023-05-14T12:12:16;20.20;99.90
7411;DHT22;3747;48.628;9.058;2023-05-14T12:14:43;21.20;99.90
7411;DHT22;3747;48.628;9.058;2023-05-14T12:17:12;21.10;99.90
7411;DHT22;3747;48.628;9.058;2023-05-14T12:19:40;20.30;99.90
7411;DHT22;3747;48.628;9.058;2023-05-14T12:22:07;19.40;99.90
7411;DHT22;3747;48.628;9.058;2023-05-14T12:24:34;18.50;99.90
7411;DHT22;3747;48.628;9.058;2023-05-14T12:27:02;18.00;99.90
7411;DHT22;3747;48.628;9.058;2023-05-14T12:29:29;17.80;99.90
7411;DHT22;3747;48.628;9.058;2023-05-14T12:31:56;17.50;99.90
7411;DHT22;3747;48.628;9.058;2023-05-14T12:34:23;17.40;99.90
7411;DHT22;3747;48.628;9.058;2023-05-14T12:36:50;17.20;99.90
7411;DHT22;3747;48.628;9.058;2023-05-14T12:39:17;17.60;99.90
7411;DHT22;3747;48.628;9.058;2023-05-14T12:41:44;18.10;99.90
7411;DHT22;3747;48.628;9.058;2023-05-14T12:44:12;20.00;99.90
7411;DHT22;3747;48.628;9.058;2023-05-14T12:46:39;22.30;99.90
7411;DHT22;3747;48.628;9.058;2023-05-14T12:49:05;24.70;99.90
7411;DHT22;3747;48.628;9.058;2023-05-14T12:51:33;25.40;99.90
7411;DHT22;3747;48.628;9.058;2023-05-14T12:53:59;23.30;99.90
7411;DHT22;3747;48.628;9.058;2023-05-14T12:56:26;20.60;99.90
7411;DHT22;3747;48.628;9.058;2023-05-14T12:58:55;18.40;99.90
7411;DHT22;3747;48.628;9.058;2023-05-14T13:01:23;17.20;99.90
7411;DHT22;3747;48.628;9.058;2023-05-14T13:03:50;16.30;99.90
7411;DHT22;3747;48.628;9.058;2023-05-14T13:06:16;15.70;99.90
7411;DHT22;3747;48.628;9.058;2023-05-14T13:08:43;15.60;99.90
7411;DHT22;3747;48.628;9.058;2023-05-14T13:11:10;15.50;99.90
7411;DHT22;3747;48.628;9.058;2023-05-14T13:13:37;15.50;99.90
7411;DHT22;3747;48.628;9.058;2023-05-14T13:16:04;15.50;99.90
7411;DHT22;3747;48.628;9.058;2023-05-14T13:18:32;15.30;99.90
7411;DHT22;3747;48.628;9.058;2023-05-14T13:20:59;15.10;99.90
7411;DHT22;3747;48.628;9.058;2023-05-14T13:23:28;15.20;99.90
7411;DHT22;3747;48.628;9.058;2023-05-14T13:25:55;15.60;99.90
7411;DHT22;3747;48.628;9.058;2023-05-14T13:28:21;16.00;99.90
7411;DHT22;3747;48.628;9.058;2023-05-14T13:31:03;16.10;99.90
7411;DHT22;3747;48.628;9.058;2023-05-14T13:33:32;16.00;99.90
7411;DHT22;3747;48.628;9.058;2023-05-14T13:35:59;15.90;99.90
7411;DHT22;3747;48.628;9.058;2023-05-14T13:38:25;16.00;99.90
7411;DHT22;3747;48.628;9.058;2023-05-14T13:40:52;16.30;99.90
7411;DHT22;3747;48.628;9.058;2023-05-14T13:43:19;16.40;99.90
7411;DHT22;3747;48.628;9.058;2023-05-14T13:45:45;16.70;99.90
7411;DHT22;3747;48.628;9.058;2023-05-14T13:48:12;16.80;99.90
7411;DHT22;3747;48.628;9.058;2023-05-14T13:50:40;16.80;99.90
7411;DHT22;3747;48.628;9.058;2023-05-14T13:53:07;16.80;99.90
7411;DHT22;3747;48.628;9.058;2023-05-14T13:55:33;17.30;99.90
7411;DHT22;3747;48.628;9.058;2023-05-14T13:58:00;17.40;99.90
7411;DHT22;3747;48.628;9.058;2023-05-14T14:00:27;17.70;99.90
7411;DHT22;3747;48.628;9.058;2023-05-14T14:02:54;18.00;99.90
7411;DHT22;3747;48.628;9.058;2023-05-14T14:05:20;18.30;99.90
7411;DHT22;3747;48.628;9.058;2023-05-14T14:07:50;18.80;99.90
7411;DHT22;3747;48.628;9.058;2023-05-14T14:10:17;19.20;99.90
7411;DHT22;3747;48.628;9.058;2023-05-14T14:12:43;18.90;99.90
7411;DHT22;3747;48.628;9.058;2023-05-14T14:15:10;17.90;99.90
7411;DHT22;3747;48.628;9.058;2023-05-14T14:17:37;17.10;99.90
7411;DHT22;3747;48.628;9.058;2023-05-14T14:20:06;16.50;99.90
7411;DHT22;3747;48.628;9.058;2023-05-14T14:22:34;16.20;99.90
7411;DHT22;3747;48.628;9.058;2023-05-14T14:25:02;15.90;99.90
7411;DHT22;3747;48.628;9.058;2023-05-14T14:27:29;15.80;99.90
7411;DHT22;3747;48.628;9.058;2023-05-14T14:29:58;15.60;99.90
7411;DHT22;3747;48.628;9.058;2023-05-14T14:32:25;15.50;99.90
7411;DHT22;3747;48.628;9.058;2023-05-14T14:34:51;15.50;99.90
7411;DHT22;3747;48.628;9.058;2023-05-14T14:37:18;15.60;99.90
7411;DHT22;3747;48.628;9.058;2023-05-14T14:39:45;15.80;99.90
7411;DHT22;3747;48.628;9.058;2023-05-14T14:42:13;15.90;99.90
7411;DHT22;3747;48.628;9.058;2023-05-14T14:44:40;15.90;99.90
7411;DHT22;3747;48.628;9.058;2023-05-14T14:47:06;16.20;99.90
7411;DHT22;3747;48.628;9.058;2023-05-14T14:49:33;16.50;99.90
7411;DHT22;3747;48.628;9.058;2023-05-14T14:52:01;16.80;99.90
7411;DHT22;3747;48.628;9.058;2023-05-14T14:54:27;16.90;99.90
7411;DHT22;3747;48.628;9.058;2023-05-14T14:56:54;17.10;99.90
7411;DHT22;3747;48.628;9.058;2023-05-14T14:59:22;17.20;99.90
7411;DHT22;3747;48.628;9.058;2023-05-14T15:01:49;17.30;99.90
7411;DHT22;3747;48.628;9.058;2023-05-14T15:04:15;18.40;99.90
7411;DHT22;3747;48.628;9.058;2023-05-14T15:06:42;19.60;99.90
7411;DHT22;3747;48.628;9.058;2023-05-14T15:09:09;19.80;99.90
7411;DHT22;3747;48.628;9.058;2023-05-14T15:11:36;21.00;99.90
7411;DHT22;3747;48.628;9.058;2023-05-14T15:14:02;22.20;99.90
7411;DHT22;3747;48.628;9.058;2023-05-14T15:16:30;23.80;99.90
7411;DHT22;3747;48.628;9.058;2023-05-14T15:18:57;24.20;99.90
7411;DHT22;3747;48.628;9.058;2023-05-14T15:21:24;24.30;99.90
7411;DHT22;3747;48.628;9.058;2023-05-14T15:23:50;23.40;99.90
7411;DHT22;3747;48.628;9.058;2023-05-14T15:26:17;21.50;99.90
7411;DHT22;3747;48.628;9.058;2023-05-14T15:28:44;19.80;99.90
7411;DHT22;3747;48.628;9.058;2023-05-14T15:31:11;18.90;99.90
7411;DHT22;3747;48.628;9.058;2023-05-14T15:33:39;19.90;99.90
7411;DHT22;3747;48.628;9.058;2023-05-14T15:36:07;21.10;99.90
7411;DHT22;3747;48.628;9.058;2023-05-14T15:38:34;21.40;99.90
7411;DHT22;3747;48.628;9.058;2023-05-14T15:41:00;21.20;99.90
7411;DHT22;3747;48.628;9.058;2023-05-14T15:43:27;20.80;99.90
7411;DHT22;3747;48.628;9.058;2023-05-14T15:45:54;20.90;99.90
7411;DHT22;3747;48.628;9.058;2023-05-14T15:48:20;22.20;99.90
7411;DHT22;3747;48.628;9.058;2023-05-14T15:50:48;23.10;99.90
7411;DHT22;3747;48.628;9.058;2023-05-14T15:53:16;22.80;99.90
7411;DHT22;3747;48.628;9.058;2023-05-14T15:55:43;22.70;99.90
7411;DHT22;3747;48.628;9.058;2023-05-14T15:58:10;23.10;99.90
7411;DHT22;3747;48.628;9.058;2023-05-14T16:00:37;23.80;99.90
7411;DHT22;3747;48.628;9.058;2023-05-14T16:03:04;23.70;99.90
7411;DHT22;3747;48.628;9.058;2023-05-14T16:05:31;22.50;99.90
7411;DHT22;3747;48.628;9.058;2023-05-14T16:07:59;22.60;99.90